Time;durP1;ratioP1;P1;durP2;ratioP2;P2;SDS_P1;SDS_P2;PMS_P1;PMS_P2;Temp;Humidity;BMP_temperature;BMP_pressure;BME280_temperature;BME280_humidity;BME280_pressure;Samples;Min_cycle;Max_cycle;Signal;HPM_P1;HPM_P2
2024/03/15 00:00:41;;;;;;;6.03;3.42;;;;;;;;;;10403545;28;20021;-58
2024/03/15 00:05:43;;;;;;;7.80;3.40;;;;;;;;;;10402655;28;20037;-59
2024/03/15 00:10:43;;;;;;;3.53;2.60;;;;;;;;;;10413324;28;20060;-58
2024/03/15 00:15:44;;;;;;;10.18;3.03;;;;;;;;;;10422578;28;20547;-58
2024/03/15 00:20:45;;;;;;;7.65;3.13;;;;;;;;;;10413849;28;20025;-58
2024/03/15 00:25:45;;;;;;;4.97;2.92;;;;;;;;;;10434160;28;20037;-58
2024/03/15 00:30:46;;;;;;;10.80;2.80;;;;;;;;;;10433594;28;20029;-58
2024/03/15 00:35:47;;;;;;;5.97;2.83;;;;;;;;;;10401309;28;20041;-58
2024/03/15 00:40:47;;;;;;;4.72;2.90;;;;;;;;;;10415370;28;20040;-58
2024/03/15 00:45:48;;;;;;;3.67;2.80;;;;;;;;;;10400877;28;20022;-58
2024/03/15 00:50:49;;;;;;;7.03;3.00;;;;;;;;;;10423706;28;20022;-58
2024/03/15 00:55:50;;;;;;;4.82;2.45;;;;;;;;;;10412369;28;20033;-58
2024/03/15 01:00:50;;;;;;;3.42;2.55;;;;;;;;;;10411489;28;20029;-59
2024/03/15 01:05:52;;;;;;;5.18;3.05;;;;;;;;;;10423737;28;20052;-58
2024/03/15 01:10:52;;;;;;;4.65;2.80;;;;;;;;;;10401886;28;20065;-58
2024/03/15 01:15:53;;;;;;;5.93;2.60;;;;;;;;;;10410772;28;20053;-58
2024/03/15 01:20:53;;;;;;;3.38;2.90;;;;;;;;;;10423059;28;20485;-58
2024/03/15 01:25:54;;;;;;;4.90;3.10;;;;;;;;;;10410803;28;20449;-59
2024/03/15 01:30:56;;;;;;;3.45;2.85;;;;;;;;;;10415893;28;20041;-59
2024/03/15 01:35:56;;;;;;;3.08;2.78;;;;;;;;;;10401036;28;20509;-60
2024/03/15 01:40:57;;;;;;;4.88;2.60;;;;;;;;;;10419523;28;20080;-57
2024/03/15 01:45:58;;;;;;;3.67;2.67;;;;;;;;;;10415019;28;20029;-58
2024/03/15 01:50:58;;;;;;;4.30;3.05;;;;;;;;;;10410366;28;20072;-58
2024/03/15 01:56:00;;;;;;;7.05;3.17;;;;;;;;;;10410090;28;20338;-58
2024/03/15 02:01:02;;;;;;;4.65;2.90;;;;;;;;;;10416266;28;20087;-58
2024/03/15 02:06:05;;;;;;;6.88;3.15;;;;;;;;;;10410807;28;20033;-58
2024/03/15 02:11:06;;;;;;;3.67;2.83;;;;;;;;;;10420153;28;20038;-58
2024/03/15 02:16:07;;;;;;;6.53;3.13;;;;;;;;;;10417629;28;20098;-59
2024/03/15 02:21:07;;;;;;;2.92;2.60;;;;;;;;;;10406651;28;20552;-58
2024/03/15 02:26:08;;;;;;;2.58;2.38;;;;;;;;;;10398124;28;20038;-58
2024/03/15 02:31:11;;;;;;;4.07;2.50;;;;;;;;;;10411410;28;20528;-68
2024/03/15 02:36:12;;;;;;;2.88;2.40;;;;;;;;;;10412930;28;20072;-63
2024/03/15 02:41:15;;;;;;;2.97;2.70;;;;;;;;;;10417245;28;20041;-58
2024/03/15 02:46:15;;;;;;;3.47;2.67;;;;;;;;;;10410017;28;20049;-69
2024/03/15 02:51:16;;;;;;;3.22;2.47;;;;;;;;;;10402814;28;20041;-59
2024/03/15 02:56:17;;;;;;;3.38;2.42;;;;;;;;;;10396092;28;20038;-68
2024/03/15 03:01:17;;;;;;;2.97;2.25;;;;;;;;;;10417359;28;20025;-59
2024/03/15 03:06:18;;;;;;;2.83;2.30;;;;;;;;;;10398542;28;20037;-64
2024/03/15 03:11:18;;;;;;;3.78;2.63;;;;;;;;;;10413067;28;20545;-59
2024/03/15 03:16:22;;;;;;;6.03;2.50;;;;;;;;;;10393281;28;20040;-59
2024/03/15 03:21:22;;;;;;;2.72;2.38;;;;;;;;;;10399502;28;20048;-59
2024/03/15 03:26:26;;;;;;;3.83;2.45;;;;;;;;;;10391015;28;20029;-59
2024/03/15 03:31:27;;;;;;;2.47;2.28;;;;;;;;;;10400801;28;20030;-58
2024/03/15 03:36:28;;;;;;;2.40;2.20;;;;;;;;;;10403610;28;20048;-59
2024/03/15 03:41:29;;;;;;;2.30;2.10;;;;;;;;;;10411536;28;20042;-59
2024/03/15 03:46:31;;;;;;;3.00;2.35;;;;;;;;;;10397447;28;20528;-65
2024/03/15 03:51:31;;;;;;;2.42;2.22;;;;;;;;;;10414872;28;20025;-58
2024/03/15 03:56:32;;;;;;;5.40;2.13;;;;;;;;;;10397581;28;20033;-59
2024/03/15 04:01:33;;;;;;;6.00;2.40;;;;;;;;;;10411568;28;20041;-59
2024/03/15 04:06:34;;;;;;;2.70;2.15;;;;;;;;;;10394305;28;20038;-59
2024/03/15 04:11:35;;;;;;;2.55;2.35;;;;;;;;;;10416412;28;20029;-59
2024/03/15 04:16:36;;;;;;;5.72;2.63;;;;;;;;;;10371257;28;20029;-58
2024/03/15 04:21:36;;;;;;;3.28;2.22;;;;;;;;;;10412006;28;20068;-58
2024/03/15 04:26:37;;;;;;;2.95;2.35;;;;;;;;;;10413557;28;20496;-59
2024/03/15 04:31:39;;;;;;;2.40;2.20;;;;;;;;;;10415806;28;20038;-59
2024/03/15 04:36:42;;;;;;;2.65;2.35;;;;;;;;;;10408063;28;20083;-59
2024/03/15 04:41:43;;;;;;;2.63;2.28;;;;;;;;;;10409945;28;20435;-59
2024/03/15 04:46:44;;;;;;;2.83;2.20;;;;;;;;;;10412362;28;20095;-59
2024/03/15 04:51:44;;;;;;;2.88;2.53;;;;;;;;;;10417391;28;20033;-59
2024/03/15 04:56:46;;;;;;;2.67;2.33;;;;;;;;;;10411465;28;20026;-59
2024/03/15 05:01:46;;;;;;;2.85;2.42;;;;;;;;;;10426625;28;20621;-59
2024/03/15 05:06:47;;;;;;;3.45;2.20;;;;;;;;;;10411549;28;20022;-57
2024/03/15 05:11:47;;;;;;;2.30;2.10;;;;;;;;;;10414897;28;20036;-58
2024/03/15 05:16:55;;;;;;;2.88;2.50;;;;;;;;;;10410511;28;20037;-58
2024/03/15 05:21:55;;;;;;;2.75;2.50;;;;;;;;;;10421376;28;20029;-58
2024/03/15 05:26:57;;;;;;;2.42;2.20;;;;;;;;;;10398127;28;20481;-58
2024/03/15 05:31:58;;;;;;;3.28;2.50;;;;;;;;;;10404945;28;20092;-59
2024/03/15 05:36:59;;;;;;;3.08;2.13;;;;;;;;;;10410118;28;20041;-59
2024/03/15 05:42:00;;;;;;;2.67;2.30;;;;;;;;;;10418160;28;20025;-63
2024/03/15 05:47:00;;;;;;;2.60;2.35;;;;;;;;;;10405123;28;20029;-59
2024/03/15 05:52:01;;;;;;;3.03;2.50;;;;;;;;;;10414875;28;20461;-59
2024/03/15 05:57:04;;;;;;;3.92;2.63;;;;;;;;;;10421599;28;20500;-59
2024/03/15 06:02:04;;;;;;;2.55;2.35;;;;;;;;;;10420346;28;20034;-59
2024/03/15 06:07:05;;;;;;;2.65;2.45;;;;;;;;;;10410095;28;20065;-59
2024/03/15 06:12:06;;;;;;;4.30;2.45;;;;;;;;;;10417246;28;20033;-62
2024/03/15 06:17:06;;;;;;;3.58;2.47;;;;;;;;;;10429700;28;20033;-59
2024/03/15 06:22:07;;;;;;;3.22;2.40;;;;;;;;;;10420293;28;20095;-55
2024/03/15 06:27:13;;;;;;;3.63;2.72;;;;;;;;;;10408425;28;20523;-58
2024/03/15 06:32:15;;;;;;;3.47;3.13;;;;;;;;;;10416579;28;20029;-59
2024/03/15 06:37:17;;;;;;;6.75;2.78;;;;;;;;;;10392364;28;20056;-65
2024/03/15 06:42:20;;;;;;;3.38;3.08;;;;;;;;;;10412646;28;20053;-66
2024/03/15 06:47:28;;;;;;;8.13;3.63;;;;;;;;;;10414028;28;20427;-62
2024/03/15 06:52:34;;;;;;;5.95;3.17;;;;;;;;;;10404258;28;20033;-63
2024/03/15 06:57:38;;;;;;;12.63;4.00;;;;;;;;;;10398028;28;20044;-62
2024/03/15 07:02:43;;;;;;;4.75;3.90;;;;;;;;;;10404026;28;20034;-62
2024/03/15 07:07:43;;;;;;;7.38;3.72;;;;;;;;;;10399644;28;20060;-63
2024/03/15 07:12:46;;;;;;;13.68;4.00;;;;;;;;;;10404050;28;20107;-63
2024/03/15 07:17:47;;;;;;;17.20;4.30;;;;;;;;;;10406009;28;20114;-62
2024/03/15 07:22:48;;;;;;;12.13;4.55;;;;;;;;;;10400195;28;20032;-62
2024/03/15 07:27:51;;;;;;;7.68;4.28;;;;;;;;;;10398227;28;20029;-62
2024/03/15 07:32:52;;;;;;;12.52;4.80;;;;;;;;;;10398347;28;20032;-58
2024/03/15 07:37:53;;;;;;;7.65;4.20;;;;;;;;;;10406033;28;20401;-62
2024/03/15 07:42:56;;;;;;;11.70;5.00;;;;;;;;;;10393469;28;20030;-63
2024/03/15 07:47:57;;;;;;;7.72;5.35;;;;;;;;;;10405840;28;20038;-63
2024/03/15 07:52:57;;;;;;;7.53;4.70;;;;;;;;;;10406466;28;20076;-62
2024/03/15 07:57:58;;;;;;;6.85;4.30;;;;;;;;;;10414043;28;20037;-62
2024/03/15 08:02:59;;;;;;;6.72;4.53;;;;;;;;;;10401590;28;20056;-62
2024/03/15 08:08:00;;;;;;;12.18;5.32;;;;;;;;;;10414382;28;20026;-62
2024/03/15 08:13:00;;;;;;;7.65;5.05;;;;;;;;;;10413195;28;20021;-63
2024/03/15 08:18:03;;;;;;;10.77;5.13;;;;;;;;;;10413248;28;20025;-63
2024/03/15 08:23:03;;;;;;;13.35;5.05;;;;;;;;;;10402257;28;20030;-61
2024/03/15 08:28:04;;;;;;;10.70;6.07;;;;;;;;;;10410545;28;20033;-62
2024/03/15 08:33:06;;;;;;;7.82;5.53;;;;;;;;;;10398761;28;20018;-59
2024/03/15 08:38:06;;;;;;;7.68;4.97;;;;;;;;;;10404928;28;20518;-61
2024/03/15 08:43:08;;;;;;;8.93;5.00;;;;;;;;;;10412253;28;20091;-60
2024/03/15 08:48:12;;;;;;;9.73;5.15;;;;;;;;;;10399753;28;20025;-60
2024/03/15 08:53:13;;;;;;;9.68;4.97;;;;;;;;;;10410987;28;20380;-60
2024/03/15 08:58:13;;;;;;;8.68;5.38;;;;;;;;;;10411310;28;20040;-61
2024/03/15 09:03:14;;;;;;;11.43;5.72;;;;;;;;;;10411304;28;20044;-61
2024/03/15 09:08:15;;;;;;;10.38;5.03;;;;;;;;;;10398912;28;20505;-59
2024/03/15 09:13:17;;;;;;;8.52;5.85;;;;;;;;;;10398282;28;20064;-63
2024/03/15 09:18:18;;;;;;;7.65;5.32;;;;;;;;;;10410868;28;20033;-60
2024/03/15 09:23:19;;;;;;;9.05;5.43;;;;;;;;;;10410892;28;20022;-60
2024/03/15 09:28:19;;;;;;;9.45;5.28;;;;;;;;;;10410114;28;20470;-60
2024/03/15 09:33:23;;;;;;;14.35;5.45;;;;;;;;;;10400523;28;20025;-61
2024/03/15 09:38:24;;;;;;;6.68;4.95;;;;;;;;;;10409777;28;20501;-62
2024/03/15 09:43:29;;;;;;;9.95;4.53;;;;;;;;;;10409328;28;20033;-60
2024/03/15 09:48:32;;;;;;;6.18;5.00;;;;;;;;;;10409707;28;20048;-59
2024/03/15 09:53:32;;;;;;;12.35;5.07;;;;;;;;;;10407270;28;20470;-59
2024/03/15 09:58:33;;;;;;;10.50;5.05;;;;;;;;;;10409097;28;20029;-62
2024/03/15 10:03:34;;;;;;;7.90;5.38;;;;;;;;;;10395136;28;20025;-60
2024/03/15 10:08:35;;;;;;;8.23;5.13;;;;;;;;;;10408010;28;20595;-62
2024/03/15 10:13:35;;;;;;;9.25;4.68;;;;;;;;;;10401549;28;20044;-63
2024/03/15 10:18:39;;;;;;;11.13;5.40;;;;;;;;;;10400049;28;20090;-63
2024/03/15 10:23:39;;;;;;;7.93;5.00;;;;;;;;;;10406401;28;20491;-61
2024/03/15 10:28:40;;;;;;;10.90;5.35;;;;;;;;;;10396824;28;20029;-60
2024/03/15 10:33:40;;;;;;;5.57;4.68;;;;;;;;;;10398964;28;20048;-60
2024/03/15 10:38:41;;;;;;;7.53;4.78;;;;;;;;;;10406574;28;20040;-61
2024/03/15 10:43:42;;;;;;;7.18;4.93;;;;;;;;;;10393630;28;20033;-62
2024/03/15 10:48:42;;;;;;;6.82;5.07;;;;;;;;;;10406042;28;20029;-61
2024/03/15 10:53:44;;;;;;;8.05;5.53;;;;;;;;;;10404415;28;20048;-59
2024/03/15 10:58:46;;;;;;;6.85;5.50;;;;;;;;;;10405130;28;20374;-61
2024/03/15 11:03:47;;;;;;;11.38;5.82;;;;;;;;;;10406515;28;20491;-61
2024/03/15 11:08:47;;;;;;;7.38;5.65;;;;;;;;;;10394001;28;20028;-60
2024/03/15 11:13:50;;;;;;;8.55;5.22;;;;;;;;;;10394073;28;20022;-59
2024/03/15 11:18:51;;;;;;;8.00;6.50;;;;;;;;;;10406509;28;20079;-59
2024/03/15 11:23:51;;;;;;;12.35;6.18;;;;;;;;;;10406484;28;20554;-61
2024/03/15 11:28:55;;;;;;;10.10;6.38;;;;;;;;;;10409573;28;20024;-60
2024/03/15 11:33:58;;;;;;;12.73;6.90;;;;;;;;;;10394405;28;20073;-59
2024/03/15 11:38:59;;;;;;;9.60;7.10;;;;;;;;;;10414505;28;20041;-59
2024/03/15 11:44:03;;;;;;;8.60;6.13;;;;;;;;;;10414514;28;20032;-60
2024/03/15 11:49:03;;;;;;;12.07;7.10;;;;;;;;;;10414375;28;20083;-59
2024/03/15 11:54:15;;;;;;;10.77;7.57;;;;;;;;;;10413243;28;20025;-59
2024/03/15 11:59:17;;;;;;;8.88;6.82;;;;;;;;;;10413102;28;20072;-59
2024/03/15 12:04:18;;;;;;;13.15;7.57;;;;;;;;;;10413898;28;20037;-59
2024/03/15 12:09:19;;;;;;;9.68;7.40;;;;;;;;;;10413811;28;20022;-59
2024/03/15 12:14:21;;;;;;;11.00;7.85;;;;;;;;;;10413651;28;20030;-59
2024/03/15 12:19:22;;;;;;;13.38;8.50;;;;;;;;;;10413240;28;20128;-59
2024/03/15 12:24:23;;;;;;;11.88;8.43;;;;;;;;;;10400194;28;20029;-59
2024/03/15 12:29:23;;;;;;;10.55;8.32;;;;;;;;;;10413228;28;20404;-59
2024/03/15 12:34:24;;;;;;;12.50;8.23;;;;;;;;;;10403812;28;20189;-59
2024/03/15 12:39:25;;;;;;;11.45;8.50;;;;;;;;;;10412120;28;20036;-59
2024/03/15 12:44:25;;;;;;;12.30;9.00;;;;;;;;;;10397438;28;20036;-62
2024/03/15 12:49:26;;;;;;;10.48;8.50;;;;;;;;;;10412540;28;20470;-59
2024/03/15 12:54:26;;;;;;;12.13;8.45;;;;;;;;;;10411360;28;20473;-59
2024/03/15 12:59:27;;;;;;;13.38;8.63;;;;;;;;;;10408698;28;20046;-61
2024/03/15 13:04:28;;;;;;;11.02;8.55;;;;;;;;;;10416663;28;20079;-60
2024/03/15 13:09:28;;;;;;;16.77;9.07;;;;;;;;;;10410903;28;20036;-61
2024/03/15 13:14:30;;;;;;;13.23;8.77;;;;;;;;;;10416706;28;20064;-63
2024/03/15 13:19:30;;;;;;;12.82;8.90;;;;;;;;;;10417755;28;20488;-59
2024/03/15 13:24:31;;;;;;;11.13;8.00;;;;;;;;;;10418699;28;20028;-61
2024/03/15 13:29:32;;;;;;;11.88;8.82;;;;;;;;;;10405198;28;20025;-59
2024/03/15 13:34:32;;;;;;;11.48;8.30;;;;;;;;;;10391795;28;20042;-59
2024/03/15 13:39:33;;;;;;;13.30;8.07;;;;;;;;;;10417008;28;21833;-62
2024/03/15 13:44:35;;;;;;;12.15;8.30;;;;;;;;;;10402697;28;20040;-63
2024/03/15 13:49:35;;;;;;;12.02;8.68;;;;;;;;;;10407895;28;20567;-60
2024/03/15 13:54:36;;;;;;;14.88;9.82;;;;;;;;;;10406161;28;20129;-59
2024/03/15 13:59:36;;;;;;;10.60;8.38;;;;;;;;;;10403169;28;20029;-60
2024/03/15 14:04:37;;;;;;;13.50;8.60;;;;;;;;;;10405931;28;20029;-59
2024/03/15 14:09:37;;;;;;;12.00;7.75;;;;;;;;;;10419365;28;20030;-60
2024/03/15 14:14:38;;;;;;;9.90;8.05;;;;;;;;;;10400624;28;20033;-60
2024/03/15 14:19:39;;;;;;;8.88;7.60;;;;;;;;;;10390168;28;20115;-63
2024/03/15 14:24:40;;;;;;;10.52;7.95;;;;;;;;;;10404961;28;20047;-59
2024/03/15 14:29:40;;;;;;;8.88;7.38;;;;;;;;;;10406589;28;20021;-63
2024/03/15 14:34:45;;;;;;;9.43;7.40;;;;;;;;;;10404138;28;20416;-63
2024/03/15 14:39:48;;;;;;;10.60;7.78;;;;;;;;;;10406500;28;20420;-62
2024/03/15 14:44:50;;;;;;;11.48;7.85;;;;;;;;;;10407578;28;20028;-64
2024/03/15 14:49:50;;;;;;;14.50;8.82;;;;;;;;;;10406911;28;20029;-63
2024/03/15 14:54:52;;;;;;;13.68;9.52;;;;;;;;;;10415559;28;20567;-63
2024/03/15 14:59:53;;;;;;;13.38;8.80;;;;;;;;;;10394468;28;20025;-63
2024/03/15 15:04:54;;;;;;;12.98;8.30;;;;;;;;;;10405554;28;20029;-63
2024/03/15 15:09:54;;;;;;;10.77;8.07;;;;;;;;;;10394757;28;20087;-63
2024/03/15 15:14:55;;;;;;;12.40;8.38;;;;;;;;;;10406650;28;20036;-59
2024/03/15 15:19:55;;;;;;;13.00;8.75;;;;;;;;;;10406882;28;20045;-61
2024/03/15 15:24:56;;;;;;;9.55;8.05;;;;;;;;;;10406965;28;20033;-63
2024/03/15 15:29:57;;;;;;;15.68;8.10;;;;;;;;;;10405828;28;20025;-64
2024/03/15 15:34:57;;;;;;;11.48;7.97;;;;;;;;;;10398370;28;20041;-63
2024/03/15 15:39:58;;;;;;;10.88;7.82;;;;;;;;;;10396784;28;20045;-59
2024/03/15 15:44:59;;;;;;;13.63;9.10;;;;;;;;;;10437346;23;20053;-52
2024/03/15 15:50:05;;;;;;;10.32;7.72;;;;;;;;;;10442621;28;20078;-50
2024/03/15 15:55:10;;;;;;;11.77;8.68;;;;;;;;;;10417041;28;20108;-53
2024/03/15 16:00:14;;;;;;;11.75;7.97;;;;;;;;;;10415530;28;20067;-53
2024/03/15 16:05:15;;;;;;;11.90;7.57;;;;;;;;;;10431635;28;20037;-52
2024/03/15 16:10:15;;;;;;;10.88;7.65;;;;;;;;;;10420303;28;20025;-53
2024/03/15 16:15:16;;;;;;;12.77;7.47;;;;;;;;;;10438401;28;20021;-54
2024/03/15 16:20:17;;;;;;;11.90;7.75;;;;;;;;;;10436174;28;20035;-53
2024/03/15 16:25:17;;;;;;;10.10;7.22;;;;;;;;;;10444989;28;20388;-52
2024/03/15 16:30:38;;;;;;;9.73;7.68;;;;;;;;;;10442220;28;20028;-53
2024/03/15 16:35:39;;;;;;;8.65;7.35;;;;;;;;;;10316257;28;20583;-53
2024/03/15 16:40:39;;;;;;;9.68;7.72;;;;;;;;;;10317865;28;20088;-53
2024/03/15 16:45:41;;;;;;;9.18;7.60;;;;;;;;;;10317747;28;20045;-54
2024/03/15 16:50:41;;;;;;;13.38;7.72;;;;;;;;;;10315396;28;20425;-54
2024/03/15 16:55:43;;;;;;;9.73;7.80;;;;;;;;;;10316273;28;20034;-54
2024/03/15 17:00:47;;;;;;;10.98;7.55;;;;;;;;;;10314376;28;20047;-54
2024/03/15 17:05:48;;;;;;;9.77;7.18;;;;;;;;;;10304264;28;20057;-54
2024/03/15 17:10:48;;;;;;;8.25;6.97;;;;;;;;;;10361676;28;20056;-55
2024/03/15 17:15:49;;;;;;;9.63;7.30;;;;;;;;;;10446888;28;20021;-53
2024/03/15 17:20:50;;;;;;;10.60;6.75;;;;;;;;;;10420344;28;20469;-53
2024/03/15 17:25:51;;;;;;;8.73;7.10;;;;;;;;;;10441976;28;20087;-53
2024/03/15 17:30:52;;;;;;;9.50;7.13;;;;;;;;;;10449577;28;20059;-52
2024/03/15 17:35:53;;;;;;;8.18;6.80;;;;;;;;;;10440051;28;20033;-54
2024/03/15 17:40:53;;;;;;;9.52;7.38;;;;;;;;;;10445521;28;20017;-53
2024/03/15 17:45:54;;;;;;;10.05;7.38;;;;;;;;;;10430917;28;20060;-53
2024/03/15 17:50:55;;;;;;;9.40;6.88;;;;;;;;;;10437560;28;20025;-53
2024/03/15 17:55:56;;;;;;;11.23;6.93;;;;;;;;;;10440986;28;20472;-53
2024/03/15 18:01:00;;;;;;;8.13;6.63;;;;;;;;;;10447786;28;20032;-54
2024/03/15 18:06:00;;;;;;;8.57;7.43;;;;;;;;;;10444681;28;20232;-53
2024/03/15 18:11:01;;;;;;;9.48;6.45;;;;;;;;;;10440066;28;20578;-52
2024/03/15 18:16:01;;;;;;;8.95;6.93;;;;;;;;;;10440652;28;20037;-54
2024/03/15 18:21:02;;;;;;;18.30;6.65;;;;;;;;;;10447329;28;20033;-57
2024/03/15 18:26:03;;;;;;;9.40;6.97;;;;;;;;;;10444570;28;20468;-53
2024/03/15 18:31:07;;;;;;;16.23;7.15;;;;;;;;;;10442532;28;20054;-54
2024/03/15 18:36:08;;;;;;;8.60;6.38;;;;;;;;;;10446321;28;20401;-54
2024/03/15 18:41:08;;;;;;;9.70;6.57;;;;;;;;;;10441673;28;20040;-56
2024/03/15 18:46:09;;;;;;;7.95;6.38;;;;;;;;;;10441787;28;20413;-54
2024/03/15 18:51:09;;;;;;;10.13;6.63;;;;;;;;;;10432886;28;20430;-56
2024/03/15 18:56:10;;;;;;;10.77;6.55;;;;;;;;;;10440962;28;20418;-55
2024/03/15 19:01:12;;;;;;;8.38;7.00;;;;;;;;;;10422492;28;20029;-54
2024/03/15 19:06:13;;;;;;;8.35;6.28;;;;;;;;;;10439510;28;20029;-51
2024/03/15 19:11:15;;;;;;;9.52;7.35;;;;;;;;;;10441711;28;20040;-53
2024/03/15 19:16:16;;;;;;;10.57;6.50;;;;;;;;;;10444995;28;20037;-52
2024/03/15 19:21:17;;;;;;;10.27;6.40;;;;;;;;;;10445836;28;20029;-55
2024/03/15 19:26:18;;;;;;;8.40;7.00;;;;;;;;;;10437389;28;20492;-56
2024/03/15 19:31:19;;;;;;;8.45;7.00;;;;;;;;;;10442556;28;20412;-52
2024/03/15 19:36:20;;;;;;;8.80;6.75;;;;;;;;;;10444421;28;20025;-53
2024/03/15 19:41:21;;;;;;;8.07;7.28;;;;;;;;;;10446851;28;20379;-52
2024/03/15 19:46:21;;;;;;;10.57;7.47;;;;;;;;;;10447639;28;20044;-53
2024/03/15 19:51:24;;;;;;;10.68;7.75;;;;;;;;;;10448104;28;20024;-55
2024/03/15 19:56:25;;;;;;;10.52;7.53;;;;;;;;;;10439945;28;20051;-52
2024/03/15 20:01:25;;;;;;;10.88;7.43;;;;;;;;;;10432202;28;20055;-54
2024/03/15 20:06:29;;;;;;;9.73;7.25;;;;;;;;;;10447310;28;20032;-51
2024/03/15 20:11:30;;;;;;;9.18;6.85;;;;;;;;;;10442442;28;20423;-53
2024/03/15 20:16:31;;;;;;;8.82;7.07;;;;;;;;;;10475945;28;20029;-55
2024/03/15 20:21:31;;;;;;;9.32;7.00;;;;;;;;;;10453116;28;20040;-54
2024/03/15 20:26:33;;;;;;;7.65;6.80;;;;;;;;;;10453345;28;20102;-50
2024/03/15 20:31:33;;;;;;;9.05;6.97;;;;;;;;;;10451812;28;20041;-52
2024/03/15 20:36:34;;;;;;;15.82;7.45;;;;;;;;;;10453852;28;20033;-55
2024/03/15 20:41:34;;;;;;;16.08;7.43;;;;;;;;;;10453615;28;20032;-55
2024/03/15 20:46:35;;;;;;;11.40;7.65;;;;;;;;;;10452675;28;20078;-54
2024/03/15 20:51:36;;;;;;;15.30;7.55;;;;;;;;;;10451479;28;20025;-54
2024/03/15 20:56:37;;;;;;;15.40;7.78;;;;;;;;;;10437750;28;20040;-55
2024/03/15 21:01:40;;;;;;;15.93;8.45;;;;;;;;;;10425824;28;20218;-56
2024/03/15 21:06:41;;;;;;;35.97;9.50;;;;;;;;;;10378163;28;20043;-61
2024/03/15 21:11:42;;;;;;;11.35;7.10;;;;;;;;;;10426043;28;20025;-58
2024/03/15 21:16:43;;;;;;;17.23;7.93;;;;;;;;;;10426619;28;20025;-61
2024/03/15 21:21:44;;;;;;;18.98;7.70;;;;;;;;;;10439962;28;20033;-62
2024/03/15 21:26:45;;;;;;;10.50;7.88;;;;;;;;;;10440455;28;20526;-62
2024/03/15 21:31:45;;;;;;;10.55;6.70;;;;;;;;;;10445696;28;20029;-54
2024/03/15 21:36:46;;;;;;;11.15;6.57;;;;;;;;;;10428979;28;20032;-56
2024/03/15 21:41:49;;;;;;;11.90;6.75;;;;;;;;;;10444426;28;20033;-58
2024/03/15 21:46:50;;;;;;;10.95;6.57;;;;;;;;;;10449548;28;20127;-54
2024/03/15 21:51:52;;;;;;;10.13;6.90;;;;;;;;;;10434305;28;20017;-56
2024/03/15 21:56:52;;;;;;;17.00;6.45;;;;;;;;;;10440501;28;20086;-55
2024/03/15 22:01:54;;;;;;;8.40;6.40;;;;;;;;;;10437165;28;20087;-55
2024/03/15 22:06:55;;;;;;;9.63;6.30;;;;;;;;;;10427281;28;20029;-62
2024/03/15 22:11:55;;;;;;;15.05;6.50;;;;;;;;;;10439434;28;20021;-57
2024/03/15 22:16:56;;;;;;;9.15;6.22;;;;;;;;;;10429603;28;20168;-55
2024/03/15 22:21:57;;;;;;;8.90;6.25;;;;;;;;;;10440070;28;20024;-60
2024/03/15 22:26:58;;;;;;;10.05;6.22;;;;;;;;;;10449147;28;20392;-53
2024/03/15 22:31:58;;;;;;;9.45;5.85;;;;;;;;;;10447913;28;20028;-59
2024/03/15 22:37:00;;;;;;;8.93;5.53;;;;;;;;;;10435174;28;20268;-60
2024/03/15 22:42:01;;;;;;;8.90;6.18;;;;;;;;;;10442250;28;20025;-55
2024/03/15 22:47:02;;;;;;;10.45;6.18;;;;;;;;;;10440173;28;20037;-61
2024/03/15 22:52:02;;;;;;;11.63;6.93;;;;;;;;;;10427391;28;20020;-54
2024/03/15 22:57:03;;;;;;;10.73;5.93;;;;;;;;;;10435072;28;20034;-55
2024/03/15 23:02:04;;;;;;;10.70;6.10;;;;;;;;;;10434267;28;20036;-55
2024/03/15 23:07:04;;;;;;;10.98;6.15;;;;;;;;;;10440249;28;20083;-57
2024/03/15 23:12:05;;;;;;;9.10;6.05;;;;;;;;;;10439751;28;20021;-62
2024/03/15 23:17:06;;;;;;;7.80;5.93;;;;;;;;;;10434429;28;20111;-55
2024/03/15 23:22:07;;;;;;;7.50;5.70;;;;;;;;;;10442558;28;20377;-57
2024/03/15 23:27:07;;;;;;;9.18;6.40;;;;;;;;;;10435621;28;20389;-60
2024/03/15 23:32:09;;;;;;;7.68;5.65;;;;;;;;;;10415003;28;20037;-55
2024/03/15 23:37:09;;;;;;;9.95;5.22;;;;;;;;;;10430761;28;20116;-54
2024/03/15 23:42:12;;;;;;;8.15;5.22;;;;;;;;;;10443363;28;20465;-55
2024/03/15 23:47:14;;;;;;;9.75;5.32;;;;;;;;;;10444682;28;20041;-56
2024/03/15 23:52:15;;;;;;;9.02;5.40;;;;;;;;;;10433632;28;20063;-56
2024/03/15 23:57:15;;;;;;;12.60;4.95;;;;;;;;;;10433426;28;20090;-54
